RYR6LW LOWW-EPWA
Flight info
| Callsign | RYR6LW |
|---|---|
| Flight time | 0h 57m |
| Altitude | 35000 |
| Route | KOXER DCT LEDVA DCT NETIR DCT KOTEK/N0446F290 DCT LOGDA |
| Aircraft | A320/M-SDE2FGHIJ1RWY/SB1 |
Departure
| Time | 2026-04-20 20:02 |
|---|---|
| Airport | Vienna International Airport (LOWW) |
Arrival
| Time | 2026-04-20 20:59 |
|---|---|
| Airport | Warsaw Chopin Airport (EPWA) |
| Time | Latitude | Longitude | Altitude | Speed | Heading |
|---|---|---|---|---|---|
| 2026-04-20 19:40 | 48.11924 | 16.55632 | 591 ft | 0 kts | 26° |
| 2026-04-20 19:54 | 48.11920 | 16.55630 | 591 ft | 2 kts | 26° |
| 2026-04-20 19:54 | 48.11907 | 16.55620 | 591 ft | 2 kts | 26° |
| 2026-04-20 19:54 | 48.11894 | 16.55610 | 591 ft | 2 kts | 26° |
| 2026-04-20 19:55 | 48.11880 | 16.55600 | 591 ft | 2 kts | 26° |
| 2026-04-20 19:55 | 48.11866 | 16.55591 | 591 ft | 1 kts | 37° |
| 2026-04-20 19:55 | 48.11859 | 16.55572 | 591 ft | 2 kts | 84° |
| 2026-04-20 19:55 | 48.11862 | 16.55550 | 591 ft | 2 kts | 124° |
| 2026-04-20 19:56 | 48.11867 | 16.55538 | 591 ft | 1 kts | 117° |
| 2026-04-20 19:56 | 48.11869 | 16.55534 | 591 ft | 0 kts | 114° |
| 2026-04-20 19:56 | 48.11868 | 16.55534 | 590 ft | 0 kts | 114° |
| 2026-04-20 19:57 | 48.11867 | 16.55539 | 590 ft | 3 kts | 114° |
| 2026-04-20 19:57 | 48.11841 | 16.55586 | 591 ft | 6 kts | 154° |
| 2026-04-20 19:58 | 48.11795 | 16.55578 | 591 ft | 6 kts | 188° |
| 2026-04-20 19:58 | 48.11745 | 16.55629 | 591 ft | 15 kts | 118° |
| 2026-04-20 19:58 | 48.11695 | 16.55784 | 593 ft | 16 kts | 116° |
| 2026-04-20 19:58 | 48.11646 | 16.55935 | 594 ft | 15 kts | 116° |
| 2026-04-20 19:59 | 48.11598 | 16.56080 | 596 ft | 15 kts | 116° |
| 2026-04-20 19:59 | 48.11552 | 16.56221 | 597 ft | 14 kts | 116° |
| 2026-04-20 19:59 | 48.11508 | 16.56356 | 598 ft | 14 kts | 116° |
| 2026-04-20 19:59 | 48.11465 | 16.56488 | 600 ft | 13 kts | 116° |
| 2026-04-20 20:00 | 48.11424 | 16.56614 | 601 ft | 13 kts | 116° |
| 2026-04-20 20:00 | 48.11384 | 16.56736 | 603 ft | 12 kts | 116° |
| 2026-04-20 20:00 | 48.11328 | 16.56769 | 604 ft | 9 kts | 202° |
| 2026-04-20 20:00 | 48.11297 | 16.56677 | 603 ft | 12 kts | 268° |
| 2026-04-20 20:01 | 48.11281 | 16.56496 | 602 ft | 19 kts | 260° |
| 2026-04-20 20:01 | 48.11343 | 16.56222 | 599 ft | 55 kts | 296° |
| 2026-04-20 20:01 | 48.11619 | 16.55371 | 592 ft | 124 kts | 296° |
| 2026-04-20 20:01 | 48.12053 | 16.54033 | 868 ft | 151 kts | 297° |
| 2026-04-20 20:02 | 48.12426 | 16.52560 | 1505 ft | 155 kts | 275° |
| 2026-04-20 20:02 | 48.12011 | 16.51113 | 2169 ft | 166 kts | 221° |
| 2026-04-20 20:02 | 48.10944 | 16.50447 | 2778 ft | 168 kts | 196° |
| 2026-04-20 20:02 | 48.09808 | 16.50117 | 3323 ft | 170 kts | 193° |
| 2026-04-20 20:03 | 48.08657 | 16.49765 | 3863 ft | 172 kts | 197° |
| 2026-04-20 20:03 | 48.07443 | 16.49298 | 4269 ft | 186 kts | 199° |
| 2026-04-20 20:03 | 48.06139 | 16.48764 | 4668 ft | 204 kts | 193° |
| 2026-04-20 20:03 | 48.04671 | 16.49080 | 4977 ft | 232 kts | 154° |
| 2026-04-20 20:04 | 48.03232 | 16.50391 | 5509 ft | 250 kts | 146° |
| 2026-04-20 20:04 | 48.01761 | 16.51903 | 6046 ft | 268 kts | 147° |
| 2026-04-20 20:04 | 48.00155 | 16.53507 | 6598 ft | 286 kts | 148° |
| 2026-04-20 20:04 | 47.98446 | 16.55141 | 7377 ft | 295 kts | 149° |
| 2026-04-20 20:05 | 47.96826 | 16.57046 | 8245 ft | 302 kts | 129° |
| 2026-04-20 20:05 | 47.95966 | 16.59824 | 9108 ft | 303 kts | 97° |
| 2026-04-20 20:05 | 47.96106 | 16.62930 | 9936 ft | 300 kts | 69° |
| 2026-04-20 20:05 | 47.96813 | 16.65833 | 10612 ft | 308 kts | 65° |
| 2026-04-20 20:06 | 47.97602 | 16.68877 | 11063 ft | 325 kts | 65° |
| 2026-04-20 20:06 | 47.98410 | 16.72136 | 11672 ft | 337 kts | 67° |
| 2026-04-20 20:06 | 47.99218 | 16.75401 | 12435 ft | 339 kts | 64° |
| 2026-04-20 20:06 | 48.00259 | 16.78551 | 13147 ft | 340 kts | 56° |
| 2026-04-20 20:07 | 48.01559 | 16.81514 | 13870 ft | 341 kts | 51° |
| 2026-04-20 20:07 | 48.02954 | 16.84409 | 14599 ft | 344 kts | 50° |
| 2026-04-20 20:07 | 48.04357 | 16.87285 | 15299 ft | 347 kts | 50° |
| 2026-04-20 20:07 | 48.05784 | 16.90225 | 15982 ft | 351 kts | 50° |
| 2026-04-20 20:08 | 48.07200 | 16.93159 | 16602 ft | 355 kts | 51° |
| 2026-04-20 20:08 | 48.08649 | 16.96182 | 17242 ft | 359 kts | 51° |
| 2026-04-20 20:08 | 48.10104 | 16.99227 | 17891 ft | 362 kts | 51° |
| 2026-04-20 20:08 | 48.11606 | 17.02307 | 18500 ft | 364 kts | 47° |
| 2026-04-20 20:09 | 48.13345 | 17.05113 | 19118 ft | 364 kts | 39° |
| 2026-04-20 20:09 | 48.15312 | 17.07476 | 19731 ft | 364 kts | 31° |
| 2026-04-20 20:09 | 48.17409 | 17.09652 | 20304 ft | 367 kts | 29° |
| 2026-04-20 20:09 | 48.19535 | 17.11798 | 20870 ft | 371 kts | 29° |
| 2026-04-20 20:10 | 48.21673 | 17.13954 | 21427 ft | 374 kts | 29° |
| 2026-04-20 20:10 | 48.23839 | 17.16151 | 21998 ft | 377 kts | 29° |
| 2026-04-20 20:10 | 48.26007 | 17.18358 | 22580 ft | 379 kts | 29° |
| 2026-04-20 20:10 | 48.28202 | 17.20601 | 23105 ft | 383 kts | 29° |
| 2026-04-20 20:11 | 48.30396 | 17.22851 | 23613 ft | 386 kts | 29° |
| 2026-04-20 20:11 | 48.32638 | 17.25151 | 24136 ft | 388 kts | 29° |
| 2026-04-20 20:11 | 48.34868 | 17.27445 | 24612 ft | 391 kts | 29° |
| 2026-04-20 20:11 | 48.37134 | 17.29783 | 25029 ft | 394 kts | 28° |
| 2026-04-20 20:12 | 48.39392 | 17.32112 | 25421 ft | 398 kts | 28° |
| 2026-04-20 20:12 | 48.41664 | 17.34455 | 25826 ft | 401 kts | 29° |
| 2026-04-20 20:12 | 48.43973 | 17.36839 | 26230 ft | 403 kts | 29° |
| 2026-04-20 20:13 | 48.48626 | 17.41660 | 27036 ft | 408 kts | 29° |
| 2026-04-20 20:13 | 48.50980 | 17.44101 | 27407 ft | 410 kts | 29° |
| 2026-04-20 20:13 | 48.53331 | 17.46545 | 27773 ft | 413 kts | 29° |
| 2026-04-20 20:13 | 48.55722 | 17.49031 | 28095 ft | 416 kts | 29° |
| 2026-04-20 20:14 | 48.58103 | 17.51512 | 28473 ft | 419 kts | 29° |
| 2026-04-20 20:14 | 48.60508 | 17.54020 | 28804 ft | 422 kts | 29° |
| 2026-04-20 20:14 | 48.62922 | 17.56541 | 29164 ft | 424 kts | 29° |
| 2026-04-20 20:14 | 48.65346 | 17.59072 | 29463 ft | 427 kts | 29° |
| 2026-04-20 20:15 | 48.67816 | 17.61656 | 29746 ft | 429 kts | 30° |
| 2026-04-20 20:15 | 48.70253 | 17.64206 | 30030 ft | 431 kts | 30° |
| 2026-04-20 20:15 | 48.72735 | 17.66812 | 30283 ft | 434 kts | 30° |
| 2026-04-20 20:15 | 48.75237 | 17.69443 | 30526 ft | 437 kts | 30° |
| 2026-04-20 20:16 | 48.77716 | 17.72048 | 30772 ft | 439 kts | 30° |
| 2026-04-20 20:16 | 48.80244 | 17.74708 | 31040 ft | 441 kts | 30° |
| 2026-04-20 20:16 | 48.82748 | 17.77347 | 31310 ft | 441 kts | 31° |
| 2026-04-20 20:16 | 48.85298 | 17.80037 | 31575 ft | 442 kts | 31° |
| 2026-04-20 20:17 | 48.87796 | 17.82677 | 31823 ft | 444 kts | 31° |
| 2026-04-20 20:17 | 48.90356 | 17.85386 | 32063 ft | 445 kts | 31° |
| 2026-04-20 20:17 | 48.92894 | 17.88077 | 32286 ft | 447 kts | 31° |
| 2026-04-20 20:17 | 48.95443 | 17.90781 | 32507 ft | 448 kts | 31° |
| 2026-04-20 20:18 | 48.98000 | 17.93496 | 32739 ft | 449 kts | 31° |
| 2026-04-20 20:18 | 49.00565 | 17.96222 | 32975 ft | 450 kts | 31° |
| 2026-04-20 20:18 | 49.03133 | 17.98958 | 33201 ft | 452 kts | 31° |
| 2026-04-20 20:18 | 49.05705 | 18.01701 | 33458 ft | 451 kts | 31° |
| 2026-04-20 20:19 | 49.08292 | 18.04463 | 33714 ft | 451 kts | 31° |
| 2026-04-20 20:19 | 49.10812 | 18.07157 | 33951 ft | 452 kts | 31° |
| 2026-04-20 20:19 | 49.13393 | 18.09919 | 34179 ft | 453 kts | 31° |
| 2026-04-20 20:19 | 49.15990 | 18.12704 | 34406 ft | 454 kts | 31° |
| 2026-04-20 20:20 | 49.18568 | 18.15470 | 34635 ft | 454 kts | 32° |
| 2026-04-20 20:20 | 49.21159 | 18.18255 | 34863 ft | 455 kts | 32° |
| 2026-04-20 20:20 | 49.23762 | 18.21055 | 35004 ft | 456 kts | 32° |
| 2026-04-20 20:20 | 49.26376 | 18.23872 | 35011 ft | 457 kts | 32° |
| 2026-04-20 20:21 | 49.31573 | 18.29485 | 35015 ft | 456 kts | 32° |
| 2026-04-20 20:21 | 49.36746 | 18.35084 | 35020 ft | 456 kts | 32° |
| 2026-04-20 20:22 | 49.41961 | 18.40744 | 35024 ft | 456 kts | 32° |
| 2026-04-20 20:22 | 49.47131 | 18.46371 | 35021 ft | 455 kts | 32° |
| 2026-04-20 20:23 | 49.52283 | 18.51995 | 35018 ft | 455 kts | 32° |
| 2026-04-20 20:23 | 49.57457 | 18.57658 | 35019 ft | 454 kts | 32° |
| 2026-04-20 20:24 | 49.62612 | 18.63317 | 35021 ft | 455 kts | 32° |
| 2026-04-20 20:24 | 49.67725 | 18.69070 | 35027 ft | 456 kts | 36° |
| 2026-04-20 20:25 | 49.72496 | 18.75593 | 35030 ft | 457 kts | 42° |
| 2026-04-20 20:25 | 49.76967 | 18.82596 | 35023 ft | 457 kts | 43° |
| 2026-04-20 20:26 | 49.81399 | 18.89630 | 35015 ft | 456 kts | 43° |
| 2026-04-20 20:26 | 49.85812 | 18.96637 | 35009 ft | 456 kts | 43° |
| 2026-04-20 20:27 | 49.90243 | 19.03679 | 35012 ft | 456 kts | 43° |
| 2026-04-20 20:27 | 49.94666 | 19.10724 | 35027 ft | 456 kts | 43° |
| 2026-04-20 20:28 | 49.99096 | 19.17800 | 35038 ft | 456 kts | 44° |
| 2026-04-20 20:28 | 50.03543 | 19.24927 | 35053 ft | 456 kts | 44° |
| 2026-04-20 20:29 | 50.07953 | 19.32013 | 35058 ft | 455 kts | 44° |
| 2026-04-20 20:29 | 50.12367 | 19.39125 | 35060 ft | 454 kts | 44° |
| 2026-04-20 20:30 | 50.16764 | 19.46229 | 35066 ft | 454 kts | 44° |
| 2026-04-20 20:30 | 50.21163 | 19.53358 | 35059 ft | 454 kts | 44° |
| 2026-04-20 20:31 | 50.25569 | 19.60519 | 35062 ft | 454 kts | 44° |
| 2026-04-20 20:31 | 50.29969 | 19.67689 | 35064 ft | 454 kts | 44° |
| 2026-04-20 20:32 | 50.34351 | 19.74851 | 35065 ft | 453 kts | 45° |
| 2026-04-20 20:32 | 50.38693 | 19.81968 | 35070 ft | 453 kts | 45° |
| 2026-04-20 20:33 | 50.43057 | 19.89140 | 35075 ft | 453 kts | 45° |
| 2026-04-20 20:33 | 50.47422 | 19.96339 | 35079 ft | 454 kts | 45° |
| 2026-04-20 20:34 | 50.51750 | 20.03499 | 35068 ft | 453 kts | 45° |
| 2026-04-20 20:34 | 50.53930 | 20.07115 | 34854 ft | 452 kts | 45° |
| 2026-04-20 20:34 | 50.56088 | 20.10698 | 34651 ft | 450 kts | 45° |
| 2026-04-20 20:35 | 50.58248 | 20.14286 | 34437 ft | 447 kts | 44° |
| 2026-04-20 20:35 | 50.60439 | 20.17704 | 34229 ft | 444 kts | 41° |
| 2026-04-20 20:35 | 50.62743 | 20.20860 | 34001 ft | 441 kts | 37° |
| 2026-04-20 20:35 | 50.65190 | 20.23792 | 33659 ft | 440 kts | 34° |
| 2026-04-20 20:36 | 50.67749 | 20.26450 | 33195 ft | 441 kts | 30° |
| 2026-04-20 20:36 | 50.70401 | 20.28814 | 32711 ft | 441 kts | 26° |
| 2026-04-20 20:36 | 50.73173 | 20.30921 | 32265 ft | 439 kts | 23° |
| 2026-04-20 20:36 | 50.75944 | 20.32852 | 31813 ft | 437 kts | 22° |
| 2026-04-20 20:37 | 50.78728 | 20.34755 | 31390 ft | 434 kts | 22° |
| 2026-04-20 20:37 | 50.81501 | 20.36651 | 30721 ft | 434 kts | 22° |
| 2026-04-20 20:37 | 50.84271 | 20.38552 | 30064 ft | 431 kts | 23° |
| 2026-04-20 20:37 | 50.86988 | 20.40422 | 29419 ft | 427 kts | 23° |
| 2026-04-20 20:38 | 50.89703 | 20.42297 | 28855 ft | 421 kts | 23° |
| 2026-04-20 20:38 | 50.92355 | 20.44131 | 28322 ft | 416 kts | 23° |
| 2026-04-20 20:38 | 50.95000 | 20.45963 | 27796 ft | 410 kts | 23° |
| 2026-04-20 20:38 | 50.97579 | 20.47753 | 27285 ft | 405 kts | 23° |
| 2026-04-20 20:39 | 51.00161 | 20.49550 | 26773 ft | 400 kts | 23° |
| 2026-04-20 20:39 | 51.02673 | 20.51300 | 26271 ft | 395 kts | 23° |
| 2026-04-20 20:39 | 51.05171 | 20.53041 | 25772 ft | 390 kts | 23° |
| 2026-04-20 20:39 | 51.07664 | 20.54780 | 25268 ft | 385 kts | 23° |
| 2026-04-20 20:40 | 51.10016 | 20.56421 | 24792 ft | 381 kts | 22° |
| 2026-04-20 20:40 | 51.12463 | 20.57570 | 24296 ft | 376 kts | 5° |
| 2026-04-20 20:40 | 51.15085 | 20.57690 | 23840 ft | 371 kts | 359° |
| 2026-04-20 20:40 | 51.17677 | 20.57596 | 23303 ft | 369 kts | 358° |
| 2026-04-20 20:41 | 51.20230 | 20.57513 | 22783 ft | 366 kts | 359° |
| 2026-04-20 20:41 | 51.22748 | 20.57469 | 22319 ft | 362 kts | 359° |
| 2026-04-20 20:41 | 51.25273 | 20.57455 | 21865 ft | 358 kts | 360° |
| 2026-04-20 20:41 | 51.27741 | 20.57464 | 21439 ft | 354 kts | 360° |
| 2026-04-20 20:42 | 51.30195 | 20.57485 | 20993 ft | 351 kts | 0° |
| 2026-04-20 20:42 | 51.32641 | 20.57515 | 20556 ft | 348 kts | 0° |
| 2026-04-20 20:42 | 51.35022 | 20.57548 | 20115 ft | 345 kts | 0° |
| 2026-04-20 20:42 | 51.37440 | 20.57586 | 19658 ft | 343 kts | 0° |
| 2026-04-20 20:43 | 51.39820 | 20.57624 | 19217 ft | 341 kts | 0° |
| 2026-04-20 20:43 | 51.42162 | 20.57663 | 18757 ft | 339 kts | 0° |
| 2026-04-20 20:43 | 51.44529 | 20.57702 | 18282 ft | 338 kts | 0° |
| 2026-04-20 20:43 | 51.46860 | 20.57741 | 17808 ft | 337 kts | 0° |
| 2026-04-20 20:44 | 51.49206 | 20.57780 | 17339 ft | 335 kts | 0° |
| 2026-04-20 20:44 | 51.51542 | 20.57820 | 16865 ft | 333 kts | 1° |
| 2026-04-20 20:44 | 51.53847 | 20.57860 | 16404 ft | 332 kts | 1° |
| 2026-04-20 20:44 | 51.56154 | 20.57901 | 15942 ft | 330 kts | 1° |
| 2026-04-20 20:45 | 51.58445 | 20.57941 | 15471 ft | 329 kts | 1° |
| 2026-04-20 20:45 | 51.60726 | 20.57980 | 15007 ft | 327 kts | 1° |
| 2026-04-20 20:45 | 51.62995 | 20.58020 | 14544 ft | 326 kts | 1° |
| 2026-04-20 20:45 | 51.65258 | 20.58059 | 14080 ft | 324 kts | 1° |
| 2026-04-20 20:46 | 51.67498 | 20.58097 | 13615 ft | 323 kts | 1° |
| 2026-04-20 20:46 | 51.69743 | 20.58135 | 13146 ft | 322 kts | 1° |
| 2026-04-20 20:46 | 51.71963 | 20.58174 | 12679 ft | 320 kts | 1° |
| 2026-04-20 20:46 | 51.74191 | 20.58213 | 12224 ft | 319 kts | 1° |
| 2026-04-20 20:47 | 51.76399 | 20.58251 | 11772 ft | 318 kts | 1° |
| 2026-04-20 20:47 | 51.78620 | 20.58290 | 11311 ft | 316 kts | 1° |
| 2026-04-20 20:47 | 51.80813 | 20.58329 | 10858 ft | 314 kts | 1° |
| 2026-04-20 20:47 | 51.82991 | 20.58367 | 10418 ft | 313 kts | 2° |
| 2026-04-20 20:48 | 51.85137 | 20.58403 | 10173 ft | 304 kts | 2° |
| 2026-04-20 20:48 | 51.87220 | 20.58438 | 10056 ft | 291 kts | 2° |
| 2026-04-20 20:48 | 51.89216 | 20.58472 | 9798 ft | 285 kts | 2° |
| 2026-04-20 20:48 | 51.91184 | 20.58507 | 9497 ft | 281 kts | 2° |
| 2026-04-20 20:49 | 51.93136 | 20.58543 | 9198 ft | 277 kts | 2° |
| 2026-04-20 20:49 | 51.95033 | 20.58577 | 8918 ft | 273 kts | 2° |
| 2026-04-20 20:49 | 51.96938 | 20.58612 | 8614 ft | 269 kts | 2° |
| 2026-04-20 20:49 | 51.98799 | 20.58645 | 8269 ft | 268 kts | 3° |
| 2026-04-20 20:50 | 52.00671 | 20.58680 | 7910 ft | 267 kts | 3° |
| 2026-04-20 20:50 | 52.02503 | 20.58713 | 7562 ft | 266 kts | 3° |
| 2026-04-20 20:50 | 52.04361 | 20.58747 | 7172 ft | 264 kts | 3° |
| 2026-04-20 20:50 | 52.06186 | 20.58780 | 6697 ft | 264 kts | 4° |
| 2026-04-20 20:51 | 52.08036 | 20.58815 | 6168 ft | 264 kts | 4° |
| 2026-04-20 20:51 | 52.09865 | 20.58849 | 5725 ft | 265 kts | 4° |
| 2026-04-20 20:51 | 52.11728 | 20.58883 | 5324 ft | 266 kts | 4° |
| 2026-04-20 20:51 | 52.13583 | 20.58917 | 5015 ft | 264 kts | 4° |
| 2026-04-20 20:52 | 52.15400 | 20.58946 | 4880 ft | 255 kts | 4° |
| 2026-04-20 20:52 | 52.17141 | 20.58990 | 4796 ft | 243 kts | 8° |
| 2026-04-20 20:52 | 52.18727 | 20.59522 | 4637 ft | 232 kts | 24° |
| 2026-04-20 20:52 | 52.20210 | 20.60544 | 4337 ft | 230 kts | 28° |
| 2026-04-20 20:53 | 52.21653 | 20.61630 | 4123 ft | 225 kts | 28° |
| 2026-04-20 20:53 | 52.23075 | 20.62723 | 3821 ft | 225 kts | 33° |
| 2026-04-20 20:53 | 52.24130 | 20.64468 | 3525 ft | 217 kts | 66° |
| 2026-04-20 20:53 | 52.24400 | 20.66766 | 3435 ft | 208 kts | 91° |
| 2026-04-20 20:54 | 52.24151 | 20.69121 | 3271 ft | 204 kts | 105° |
| 2026-04-20 20:54 | 52.23673 | 20.71300 | 3149 ft | 200 kts | 108° |
| 2026-04-20 20:54 | 52.23154 | 20.73344 | 3122 ft | 188 kts | 110° |
| 2026-04-20 20:54 | 52.22647 | 20.75185 | 2991 ft | 171 kts | 111° |
| 2026-04-20 20:55 | 52.22166 | 20.76886 | 2796 ft | 158 kts | 111° |
| 2026-04-20 20:55 | 52.21718 | 20.78463 | 2565 ft | 149 kts | 111° |
| 2026-04-20 20:55 | 52.21299 | 20.79936 | 2348 ft | 140 kts | 110° |
| 2026-04-20 20:55 | 52.20902 | 20.81339 | 2149 ft | 130 kts | 110° |
| 2026-04-20 20:56 | 52.20533 | 20.82644 | 1966 ft | 125 kts | 111° |
| 2026-04-20 20:56 | 52.20175 | 20.83912 | 1799 ft | 124 kts | 109° |
| 2026-04-20 20:56 | 52.19814 | 20.85192 | 1638 ft | 123 kts | 109° |
| 2026-04-20 20:56 | 52.19458 | 20.86456 | 1482 ft | 123 kts | 110° |
| 2026-04-20 20:57 | 52.19094 | 20.87743 | 1324 ft | 123 kts | 110° |
| 2026-04-20 20:57 | 52.18739 | 20.89004 | 1150 ft | 122 kts | 110° |
| 2026-04-20 20:57 | 52.18383 | 20.90273 | 989 ft | 122 kts | 112° |
| 2026-04-20 20:57 | 52.18036 | 20.91535 | 810 ft | 123 kts | 111° |
| 2026-04-20 20:58 | 52.17668 | 20.92786 | 629 ft | 122 kts | 112° |
| 2026-04-20 20:58 | 52.17316 | 20.94054 | 478 ft | 121 kts | 112° |
| 2026-04-20 20:58 | 52.16974 | 20.95290 | 364 ft | 115 kts | 114° |
| 2026-04-20 20:58 | 52.16738 | 20.96125 | 355 ft | 59 kts | 115° |
| 2026-04-20 20:59 | 52.16601 | 20.96616 | 352 ft | 27 kts | 114° |
| 2026-04-20 20:59 | 52.16532 | 20.96883 | 352 ft | 25 kts | 106° |
| 2026-04-20 20:59 | 52.16511 | 20.97140 | 351 ft | 19 kts | 87° |
| 2026-04-20 20:59 | 52.16519 | 20.97315 | 351 ft | 9 kts | 76° |
| 2026-04-20 21:00 | 52.16568 | 20.97366 | 351 ft | 9 kts | 347° |
| 2026-04-20 21:00 | 52.16632 | 20.97312 | 351 ft | 11 kts | 331° |
| 2026-04-20 21:00 | 52.16706 | 20.97245 | 351 ft | 12 kts | 330° |
| 2026-04-20 21:00 | 52.16788 | 20.97170 | 351 ft | 14 kts | 331° |
| 2026-04-20 21:01 | 52.16878 | 20.97090 | 352 ft | 15 kts | 332° |
| 2026-04-20 21:01 | 52.16973 | 20.97008 | 352 ft | 16 kts | 332° |
| 2026-04-20 21:01 | 52.17069 | 20.96923 | 352 ft | 13 kts | 332° |
| 2026-04-20 21:01 | 52.17091 | 20.96860 | 352 ft | 7 kts | 246° |
| 2026-04-20 21:02 | 52.17084 | 20.96781 | 352 ft | 5 kts | 277° |
| 2026-04-20 21:02 | 52.17086 | 20.96767 | 352 ft | 0 kts | 277° |